AirNav   TITAN Aviation Fuels
 
 899 users online  

CN19 Las Serpientes Airport
Knightsen, California, USA

GOING TO KNIGHTSEN?


FAA INFORMATION EFFECTIVE 11 AUGUST 2022

Location

FAA Identifier: CN19
Lat/Long: 37-56-08.3500N 121-36-46.2300W
37-56.139167N 121-36.770500W
37.9356528,-121.6128417
(estimated)
Elevation: 10 ft. / 3 m (estimated)
From city: 2 miles SE of KNIGHTSEN, CA
Time zone: UTC -7 (UTC -8 during Standard Time)
Zip code: 94513

Airport Operations

Airport use: Private use. Permission required prior to landing
Activation date: 02/2004
Control tower: no
ARTCC: OAKLAND CENTER
FSS: OAKLAND FLIGHT SERVICE STATION
Attendance: UNATNDD
Segmented circle: no

Airport Communications

WX AWOS-3 at C83 (6 nm S): 123.775 (925-634-0906)
WX AWOS-AV at O88 (16 nm N): 127.075 (707-374-5396)
WX AWOS-3 at TCY (17 nm SE): 118.375 (209-831-4335)
WX ASOS at LVK (18 nm SW): PHONE 925-606-5412
WX ASOS at SCK (18 nm E): PHONE 209-982-4270

Nearby radio navigation aids

VOR radial/distance  VOR name  Freq  Var
CCRr091/21.5CONCORD VOR/DME117.0017E
LINr237/30.0LINDEN VOR/DME114.8017E
SACr168/30.6SACRAMENTO VORTAC115.2017E
OAKr050/31.6OAKLAND VOR/DME116.8017E
MODr284/36.1MODESTO VOR/DME114.6017E
SJCr009/37.2SAN JOSE VOR/DME114.1016E
SGDr095/38.8SCAGGS ISLAND VORTAC112.1017E

Airport Services

Runway Information

Runway 16/34

Dimensions: 1900 x 75 ft. / 579 x 23 m
Surface: turf
Runway edge lights: high intensity
RUNWAY 16  RUNWAY 34
Latitude: 37-56.295833N37-55.982500N
Longitude: 121-36.769500W121-36.771500W
Traffic pattern: leftleft
Displaced threshold: no200 ft.
DSPLCD THLD RY 34 MARKED WITH WHITE BOARDS.
Obstructions: none10 ft. berm, 50 ft. from runway

Airport Ownership and Management from official FAA records

Ownership: Privately-owned
Owner: BRUCE CLEGG
4401 ORWOOD ROAD
BRENTWOOD, CA 94513-5219
Phone 925-634-4064
Manager: BRUCE CLEGG
4401 ORWOOD ROAD
BRENTWOOD, CA 94513-5219
Phone 925-698-4831
CELL 925-698-4831

Airport Operational Statistics

Aircraft based on the field: 1
Single engine airplanes: 1
    

Additional Remarks

OWNER DESIRES ARPT NOT BE CHARTED.
FOR CD CTC NORCAL APCH AT 916-361-0516.

Instrument Procedures

There are no published instrument procedures at CN19.

Some nearby airports with instrument procedures:

C83 - Byron Airport (6 nm S)
O88 - Rio Vista Municipal Airport (16 nm N)
KTCY - Tracy Municipal Airport (17 nm SE)
KLVK - Livermore Municipal Airport (18 nm SW)
KSCK - Stockton Metro Airport (18 nm E)
 
Loc | Ops | Rwys | IFR | FBO | Links
Com | Nav | Svcs | Stats | Notes
Area around CN19 (Las Serpientes Airport)
 
Road maps at: MapQuest Bing Google
 
Aerial photo
WARNING: Photo may not be current or correct
Aerial photo of CN19 (Las Serpientes Airport)
Do you have a better or more recent aerial photo of Las Serpientes Airport that you would like to share? If so, please send us your photo.

 
Sectional chart

 
Airport distance calculator
Flying to Las Serpientes Airport? Find the distance to fly.

From to CN19

Sunrise and sunset
Times for 16-Aug-2022
 Local
(UTC-7)
 Zulu
(UTC)
Morning civil twilight05:5612:56
Sunrise06:2413:24
Sunset19:5802:58
Evening civil twilight20:2603:26

Current date and time
Zulu (UTC)  16-Aug-2022 11:22:44
Local (UTC-7)  16-Aug-2022 04:22:44
 
METAR
KC83 
6nm S 
161050Z AUTO 00000KT 10SM CLR 17/13 A2976 RMK AO2
KTCY 
17nm SE 
161055Z AUTO 00000KT 10SM CLR 20/09 A2976 RMK A01
KLVK 
17nm SW 
161053Z AUTO 00000KT 10SM CLR 18/08 A2979 RMK AO2 SLP083 T01780078
KSCK 
19nm E 
161055Z AUTO 00000KT 10SM CLR 19/11 A2976 RMK AO2 SLP076 T01890111
TAF
KLVK 
17nm SW 
160540Z 1606/1706 VRB03KT P6SM SKC FM161900 29006KT P6SM SKC FM162300 29014KT P6SM SKC FM170400 28006KT P6SM SKC
KSCK 
19nm E 
160520Z 1606/1706 29008KT P6SM SKC
NOTAMs
Click for the latest NOTAMs
NOTAMs are issued by the DoD/FAA and will open in a separate window not controlled by AirNav.

 

 
 

Would you like to see your business listed on this page?

 If your business provides an interesting product or service to pilots, flight crews, aircraft, or users of the Las Serpientes Airport, you should consider listing it here.  To start the listing process, click on the button below
 
Add a business
 

Other Pages about Las Serpientes Airport

Update a link
 
Copyright © AirNav, LLC. All rights reserved. Privacy Policy  Contact